Time;durP1;ratioP1;P1;durP2;ratioP2;P2;SDS_P1;SDS_P2;PMS_P1;PMS_P2;Temp;Humidity;BMP_temperature;BMP_pressure;BME280_temperature;BME280_humidity;BME280_pressure;Samples;Min_cycle;Max_cycle;Signal;HPM_P1;HPM_P2
2023/03/01 00:02:15;;;;;;;23.73;18.88;;;;;;;2.22;49.28;100176.19;5107469;28;20048;-72
2023/03/01 00:04:42;;;;;;;25.80;18.30;;;;;;;2.21;49.35;100172.69;5107257;28;20292;-72
2023/03/01 00:07:09;;;;;;;24.02;18.50;;;;;;;2.20;49.42;100175.34;5107470;28;20039;-72
2023/03/01 00:09:37;;;;;;;23.08;18.92;;;;;;;2.18;49.38;100179.72;5107466;28;20043;-72
2023/03/01 00:12:07;;;;;;;25.17;19.00;;;;;;;2.15;49.62;100187.56;5106858;28;20097;-73
2023/03/01 00:14:34;;;;;;;27.92;19.15;;;;;;;2.16;49.53;100179.72;5106705;28;20036;-73
2023/03/01 00:17:01;;;;;;;25.08;18.85;;;;;;;2.14;49.41;100178.88;5106793;28;20054;-73
2023/03/01 00:19:32;;;;;;;27.30;19.63;;;;;;;0.61;49.55;99936.13;5106173;28;20312;-72
2023/03/01 00:21:59;;;;;;;26.40;18.55;;;;;;;1.71;49.65;100114.72;5106093;28;20042;-73
2023/03/01 00:24:26;;;;;;;29.23;19.17;;;;;;;2.06;49.70;100177.19;5106653;28;20058;-72
2023/03/01 00:26:55;;;;;;;25.65;18.48;;;;;;;2.05;49.60;100175.44;5105816;28;20177;-72
2023/03/01 00:29:23;;;;;;;27.55;20.20;;;;;;;2.04;49.77;100200.72;5105598;28;20048;-72
2023/03/01 00:31:50;;;;;;;25.15;20.08;;;;;;;2.02;49.74;100181.56;5107090;28;20050;-73
2023/03/01 00:34:17;;;;;;;25.05;18.77;;;;;;;2.01;49.89;100176.34;5105611;28;20287;-74
2023/03/01 00:36:44;;;;;;;27.55;19.50;;;;;;;2.01;49.76;100173.75;5106444;28;20031;-74
2023/03/01 00:39:13;;;;;;;25.02;19.20;;;;;;;2.00;49.92;100178.09;5106644;28;20107;-73
2023/03/01 00:41:41;;;;;;;27.70;19.13;;;;;;;1.62;49.89;100110.41;5106741;28;20252;-73
2023/03/01 00:44:08;;;;;;;27.15;18.38;;;;;;;1.98;49.81;100173.75;5107000;28;20040;-73
2023/03/01 00:46:36;;;;;;;28.90;20.70;;;;;;;1.96;49.92;100163.31;5088748;28;20044;-73
2023/03/01 00:49:04;;;;;;;22.40;18.23;;;;;;;1.93;49.88;100154.63;5105475;28;20044;-74
2023/03/01 00:51:34;;;;;;;26.30;18.23;;;;;;;1.81;49.94;100132.06;5106585;28;20036;-73
2023/03/01 00:54:02;;;;;;;29.23;19.33;;;;;;;1.51;50.08;100086.94;5105109;28;20055;-73
2023/03/01 00:56:30;;;;;;;25.75;19.52;;;;;;;1.89;49.83;100152.03;5106997;28;20196;-73
2023/03/01 00:58:57;;;;;;;26.27;20.90;;;;;;;1.24;50.10;100072.31;5105126;28;20036;-74
2023/03/01 01:01:27;;;;;;;28.15;20.73;;;;;;;1.27;49.87;100061.00;5105462;28;20058;-73
2023/03/01 01:03:57;;;;;;;27.77;19.83;;;;;;;1.83;50.07;100146.00;5104387;28;20081;-73
2023/03/01 01:06:26;;;;;;;28.73;22.33;;;;;;;1.81;50.14;100143.38;5105945;28;20054;-74
2023/03/01 01:08:54;;;;;;;26.48;20.98;;;;;;;1.80;50.26;100146.88;5106183;28;20040;-73
2023/03/01 01:11:22;;;;;;;25.85;18.73;;;;;;;1.81;50.16;100152.97;5105873;28;20115;-73
2023/03/01 01:13:49;;;;;;;25.48;18.10;;;;;;;1.81;50.05;100146.00;5105885;28;20036;-73
2023/03/01 01:16:17;;;;;;;28.63;20.23;;;;;;;1.81;50.26;100147.75;5105163;28;20177;-71
2023/03/01 01:18:45;;;;;;;24.65;18.83;;;;;;;1.80;50.28;100149.50;5105017;28;20074;-70
2023/03/01 01:21:15;;;;;;;27.48;20.35;;;;;;;1.79;50.27;100146.88;5105894;28;20097;-72
2023/03/01 01:23:43;;;;;;;28.40;21.60;;;;;;;1.76;50.19;100149.53;5104931;28;20059;-72
2023/03/01 01:26:13;;;;;;;28.98;20.67;;;;;;;1.77;50.30;100148.66;5104797;28;20040;-72
2023/03/01 01:28:40;;;;;;;25.42;19.40;;;;;;;1.77;50.20;100151.25;5105652;28;20119;-72
2023/03/01 01:31:07;;;;;;;26.75;20.45;;;;;;;1.78;50.28;100142.53;5105656;28;20036;-72
2023/03/01 01:33:35;;;;;;;30.63;20.67;;;;;;;1.78;50.22;100132.09;5105781;28;20040;-72
2023/03/01 01:36:02;;;;;;;27.00;20.42;;;;;;;1.80;50.14;100130.31;5105618;28;20046;-72
2023/03/01 01:38:30;;;;;;;29.80;21.63;;;;;;;1.80;50.13;100127.72;5088625;28;20066;-72
2023/03/01 01:40:57;;;;;;;27.38;20.63;;;;;;;0.81;50.28;99961.22;5104734;28;20118;-72
2023/03/01 01:43:27;;;;;;;30.35;21.25;;;;;;;1.78;50.43;100116.41;5104702;28;20043;-72
2023/03/01 01:45:56;;;;;;;32.15;21.95;;;;;;;1.77;50.34;100123.38;5104470;28;20056;-72
2023/03/01 01:48:40;;;;;;;27.48;21.25;;;;;;;1.78;50.37;100134.69;5104669;28;20040;-72
2023/03/01 01:51:10;;;;;;;25.27;19.27;;;;;;;1.77;50.46;100114.66;5088075;28;20060;-72
2023/03/01 01:53:40;;;;;;;29.60;21.13;;;;;;;0.83;50.62;99983.81;5105407;28;20055;-71
2023/03/01 01:56:13;;;;;;;29.48;19.83;;;;;;;1.73;50.60;100123.41;5105500;28;20044;-73
2023/03/01 01:58:42;;;;;;;25.30;18.45;;;;;;;1.51;50.61;100081.72;5105827;28;20118;-72
2023/03/01 02:01:09;;;;;;;27.23;21.23;;;;;;;1.74;50.73;100125.16;5088258;28;20055;-73
2023/03/01 02:03:41;;;;;;;30.95;22.20;;;;;;;1.75;50.70;100122.53;5106202;28;20343;-73
2023/03/01 02:06:16;;;;;;;28.63;22.15;;;;;;;1.30;51.29;100058.34;5104444;28;20047;-73
2023/03/01 02:08:46;;;;;;;31.10;21.30;;;;;;;1.74;50.70;100117.31;5105471;28;20044;-72
2023/03/01 02:11:15;;;;;;;30.80;22.52;;;;;;;1.77;50.63;100118.16;5104530;28;20304;-72
2023/03/01 02:13:43;;;;;;;30.25;21.05;;;;;;;1.79;50.55;100098.09;5105513;28;20044;-72
2023/03/01 02:16:12;;;;;;;27.17;20.75;;;;;;;1.81;50.54;100105.94;5109008;28;20048;-72
2023/03/01 02:18:40;;;;;;;29.27;20.10;;;;;;;1.56;50.65;100063.41;5109117;28;20054;-72
2023/03/01 02:21:21;;;;;;;30.05;22.80;;;;;;;1.82;50.91;100112.88;5109345;28;20036;-73
2023/03/01 02:23:50;;;;;;;29.20;21.05;;;;;;;1.79;50.75;100107.69;5108115;28;20051;-71
2023/03/01 02:26:25;;;;;;;29.58;21.05;;;;;;;1.80;51.03;100110.28;5091196;28;20292;-72
2023/03/01 02:28:53;;;;;;;32.22;22.05;;;;;;;1.81;50.80;100112.03;5108107;28;20043;-72
2023/03/01 02:34:08;;;;;;;27.02;19.83;;;;;;;1.79;50.61;100110.28;5108402;28;20128;-73
2023/03/01 02:36:38;;;;;;;27.65;20.17;;;;;;;1.20;50.71;100004.47;5109103;28;20059;-73
2023/03/01 02:39:14;;;;;;;28.00;20.35;;;;;;;1.82;50.66;100099.81;5109153;28;20047;-73
2023/03/01 02:41:43;;;;;;;28.25;21.25;;;;;;;1.82;50.71;100102.44;5109276;28;20109;-73
2023/03/01 02:44:11;;;;;;;25.25;19.95;;;;;;;1.05;50.75;99987.16;5108637;28;20055;-72
2023/03/01 02:46:44;;;;;;;28.98;21.63;;;;;;;1.81;51.29;100095.47;5108563;28;20044;-73
2023/03/01 02:49:24;;;;;;;27.88;22.40;;;;;;;1.47;51.50;100064.34;5108303;28;20315;-73
2023/03/01 02:52:08;;;;;;;28.33;20.52;;;;;;;0.00;51.38;99953.75;5107759;28;20039;-73
2023/03/01 02:54:41;;;;;;;32.45;22.60;;;;;;;1.81;51.07;100098.09;5108067;28;20339;-72
2023/03/01 02:57:08;;;;;;;29.98;22.30;;;;;;;1.82;50.87;100094.59;5108173;28;20118;-71
2023/03/01 02:59:40;;;;;;;30.42;23.23;;;;;;;1.81;51.09;100090.25;5107394;28;20058;-71
2023/03/01 03:02:06;;;;;;;28.63;21.35;;;;;;;1.13;50.95;99972.31;5108018;28;20043;-71
2023/03/01 03:04:33;;;;;;;30.27;20.77;;;;;;;1.82;50.94;100095.47;5108262;28;20046;-71
2023/03/01 03:07:00;;;;;;;28.35;21.23;;;;;;;1.85;50.99;100087.59;5108441;28;20047;-71
2023/03/01 03:09:27;;;;;;;32.70;22.45;;;;;;;1.86;51.11;100089.31;5107573;28;20304;-71
2023/03/01 03:11:54;;;;;;;28.15;21.50;;;;;;;1.10;51.15;99961.88;5108125;28;20339;-73
2023/03/01 03:14:21;;;;;;;29.55;22.38;;;;;;;1.17;51.07;99965.31;5107253;28;20044;-72
2023/03/01 03:16:50;;;;;;;29.75;22.17;;;;;;;1.60;51.22;100036.41;5107222;28;20046;-72
2023/03/01 03:19:19;;;;;;;27.80;23.33;;;;;;;-1.97;51.01;100017.63;5108716;28;20036;-72
2023/03/01 03:21:46;;;;;;;30.80;22.20;;;;;;;1.87;51.08;100080.59;5108579;28;20046;-72
2023/03/01 03:24:13;;;;;;;30.67;23.00;;;;;;;0.22;51.04;99803.38;5108752;28;20051;-72
2023/03/01 03:26:40;;;;;;;31.83;22.67;;;;;;;1.90;51.09;100070.13;5107580;28;20063;-73
2023/03/01 03:29:07;;;;;;;32.50;21.73;;;;;;;-1.11;51.08;99559.31;5108356;28;20040;-73
2023/03/01 03:31:34;;;;;;;29.95;22.83;;;;;;;0.61;51.17;99971.75;5108360;28;20046;-73
2023/03/01 03:34:03;;;;;;;30.92;22.95;;;;;;;1.81;51.18;100059.75;5108154;28;20207;-73
2023/03/01 03:36:29;;;;;;;29.75;23.17;;;;;;;1.87;51.25;100069.28;5107858;28;20044;-72
2023/03/01 03:38:56;;;;;;;28.00;21.73;;;;;;;1.10;51.23;100334.34;5108119;28;20050;-72
2023/03/01 03:41:23;;;;;;;32.30;22.15;;;;;;;1.87;51.30;100070.16;5107974;28;20110;-73
2023/03/01 03:43:50;;;;;;;31.67;22.67;;;;;;;1.86;51.18;100068.41;5106936;28;20044;-72
2023/03/01 03:46:17;;;;;;;30.98;22.27;;;;;;;1.82;51.35;100098.06;5107184;28;20035;-72
2023/03/01 03:48:46;;;;;;;32.45;23.13;;;;;;;1.78;51.62;100078.06;5106877;28;20032;-72
2023/03/01 03:51:16;;;;;;;31.27;23.95;;;;;;;0.64;51.30;99870.00;5106688;28;20048;-72
2023/03/01 03:53:43;;;;;;;32.70;22.92;;;;;;;1.78;51.40;100065.00;5107181;28;20056;-72
2023/03/01 03:56:10;;;;;;;30.95;22.70;;;;;;;1.78;51.54;100065.00;5108531;28;20054;-73
2023/03/01 03:58:37;;;;;;;29.13;21.98;;;;;;;1.79;51.55;100056.28;5107514;28;20303;-72
2023/03/01 04:01:04;;;;;;;29.77;21.70;;;;;;;1.29;51.52;99969.59;5107775;28;20141;-72
2023/03/01 04:03:33;;;;;;;30.33;22.67;;;;;;;1.83;51.55;100062.34;5106664;28;20199;-72
2023/03/01 04:06:00;;;;;;;32.20;23.38;;;;;;;1.82;51.41;100060.63;5108032;28;20032;-72
2023/03/01 04:08:29;;;;;;;31.63;23.85;;;;;;;1.81;51.52;100067.59;5106497;28;20058;-72
2023/03/01 04:11:00;;;;;;;32.13;23.80;;;;;;;1.84;51.52;100092.84;5107578;28;20058;-71
2023/03/01 04:13:27;;;;;;;30.88;21.65;;;;;;;1.22;51.41;99974.00;5106330;28;20032;-72
2023/03/01 04:15:55;;;;;;;30.17;22.30;;;;;;;1.83;51.52;100063.22;5106557;28;20043;-71
2023/03/01 04:18:24;;;;;;;31.52;22.92;;;;;;;1.83;51.68;100059.72;5106997;28;20058;-72
2023/03/01 04:20:55;;;;;;;32.45;22.52;;;;;;;1.04;51.54;99922.78;5107317;28;20337;-71
2023/03/01 04:23:22;;;;;;;32.92;22.67;;;;;;;1.81;51.80;100061.50;5106244;28;20185;-71
2023/03/01 04:25:54;;;;;;;31.95;24.27;;;;;;;1.81;51.82;100061.50;5106576;28;20036;-72
2023/03/01 04:28:23;;;;;;;28.90;22.58;;;;;;;1.78;51.66;100065.00;5106464;28;20050;-72
2023/03/01 04:30:50;;;;;;;30.42;22.88;;;;;;;1.78;51.75;100064.13;5107128;28;20066;-72
2023/03/01 04:33:18;;;;;;;30.98;23.10;;;;;;;1.78;51.76;100061.53;5107373;28;20036;-73
2023/03/01 04:35:45;;;;;;;30.92;22.63;;;;;;;1.78;51.83;100064.13;5105987;28;20382;-72
2023/03/01 04:38:12;;;;;;;32.95;22.10;;;;;;;0.99;51.77;99927.16;5107118;28;20044;-72
2023/03/01 04:40:38;;;;;;;37.17;24.58;;;;;;;1.82;51.65;100060.63;5106756;28;20047;-72
2023/03/01 04:43:07;;;;;;;28.45;22.17;;;;;;;1.83;51.71;100064.97;5107147;28;20040;-72
2023/03/01 04:45:35;;;;;;;27.80;22.40;;;;;;;-0.14;51.49;99794.00;5106349;28;20050;-71
2023/03/01 04:48:02;;;;;;;31.35;22.45;;;;;;;1.82;51.78;100061.47;5106932;28;20044;-72
2023/03/01 04:50:29;;;;;;;29.40;21.63;;;;;;;0.18;51.47;99781.66;5107071;28;20107;-72
2023/03/01 04:52:58;;;;;;;29.60;21.92;;;;;;;1.84;51.71;100067.56;5106353;28;20169;-72
2023/03/01 04:55:26;;;;;;;33.58;22.75;;;;;;;1.84;51.83;100069.31;5107039;28;20047;-72
2023/03/01 04:57:53;;;;;;;30.38;21.60;;;;;;;-3.31;51.52;99192.28;5109425;28;20043;-72
2023/03/01 05:00:22;;;;;;;30.63;23.40;;;;;;;1.19;51.95;100110.66;5107273;28;20044;-72
2023/03/01 05:02:53;;;;;;;29.77;22.63;;;;;;;0.64;51.77;99854.34;5107699;28;20126;-72
2023/03/01 05:05:26;;;;;;;31.08;22.30;;;;;;;1.73;51.92;100047.63;5107384;28;20041;-72
2023/03/01 05:07:54;;;;;;;34.10;22.55;;;;;;;-2.02;51.61;99492.06;5106848;28;20067;-72
2023/03/01 05:10:21;;;;;;;31.80;23.23;;;;;;;1.81;51.80;100082.41;5107978;28;20040;-72
2023/03/01 05:12:48;;;;;;;28.67;21.75;;;;;;;1.75;51.94;100065.03;5107230;28;20036;-72
2023/03/01 05:15:15;;;;;;;29.08;22.58;;;;;;;1.12;51.81;99970.56;5106398;28;20050;-71
2023/03/01 05:17:43;;;;;;;34.92;24.65;;;;;;;1.79;52.09;100084.16;5106961;28;20040;-72
2023/03/01 05:20:11;;;;;;;33.70;24.15;;;;;;;0.31;52.04;99896.28;5106876;28;20054;-72
2023/03/01 05:22:38;;;;;;;30.52;22.92;;;;;;;0.64;51.86;99888.28;5105691;28;20123;-72
2023/03/01 05:25:06;;;;;;;29.15;22.67;;;;;;;0.68;52.07;99886.50;5105555;28;20043;-72
2023/03/01 05:27:34;;;;;;;29.05;21.25;;;;;;;0.72;52.11;99894.31;5105285;28;20043;-72
2023/03/01 05:30:13;;;;;;;28.50;20.98;;;;;;;-0.79;51.85;99645.03;5106568;28;20036;-72
2023/03/01 05:32:44;;;;;;;30.17;22.30;;;;;;;0.70;51.96;99914.31;5105601;28;20040;-72
2023/03/01 05:35:13;;;;;;;32.45;23.13;;;;;;;1.78;52.12;100095.50;5105038;28;20044;-73
2023/03/01 05:37:42;;;;;;;33.83;23.25;;;;;;;1.77;52.04;100097.25;5106239;28;20040;-72
2023/03/01 05:40:15;;;;;;;27.83;21.65;;;;;;;1.02;52.01;99968.91;5106074;28;20175;-72
2023/03/01 05:42:45;;;;;;;27.10;21.30;;;;;;;1.78;52.27;100095.50;5106258;28;20204;-73
2023/03/01 05:45:13;;;;;;;30.98;23.67;;;;;;;1.77;52.20;100099.84;5105306;28;20032;-72
2023/03/01 05:47:43;;;;;;;34.05;23.52;;;;;;;-2.13;51.62;99530.19;5106175;28;20050;-72
2023/03/01 05:50:18;;;;;;;32.85;22.13;;;;;;;1.00;52.53;99972.41;5106622;28;20185;-73
2023/03/01 05:52:46;;;;;;;32.15;21.98;;;;;;;-0.24;52.22;99761.06;5109835;28;20062;-73
2023/03/01 05:55:13;;;;;;;30.30;22.00;;;;;;;1.79;52.12;100107.69;5109138;28;20036;-73
2023/03/01 05:57:40;;;;;;;30.73;22.02;;;;;;;1.83;52.01;100106.78;5109463;28;20054;-73
2023/03/01 06:00:10;;;;;;;31.60;22.88;;;;;;;0.86;52.15;99949.88;5108257;28;20044;-73
2023/03/01 06:02:37;;;;;;;33.08;23.35;;;;;;;1.80;52.22;100105.06;5109710;28;20111;-72
2023/03/01 06:05:05;;;;;;;30.13;23.58;;;;;;;1.83;52.24;100106.78;5108835;28;20074;-73
2023/03/01 06:07:33;;;;;;;28.98;21.33;;;;;;;1.84;52.33;100112.00;5092326;28;20070;-72
2023/03/01 06:10:00;;;;;;;28.50;21.85;;;;;;;1.84;52.16;100111.13;5108672;28;20040;-73
2023/03/01 06:12:27;;;;;;;28.48;21.23;;;;;;;1.21;52.27;99998.38;5109668;28;20111;-72
2023/03/01 06:14:54;;;;;;;33.63;23.48;;;;;;;1.04;52.20;99974.97;5109551;28;20035;-72
2023/03/01 06:17:21;;;;;;;29.27;23.25;;;;;;;0.47;52.09;99910.97;5108293;28;20056;-73
2023/03/01 06:19:48;;;;;;;28.20;21.17;;;;;;;1.88;52.19;100108.47;5109131;28;20048;-73
2023/03/01 06:22:15;;;;;;;30.02;22.50;;;;;;;1.89;52.18;100106.72;5108846;28;20047;-73
2023/03/01 06:24:43;;;;;;;27.58;20.50;;;;;;;1.87;52.33;100105.88;5108097;28;20115;-72
2023/03/01 06:27:10;;;;;;;31.67;22.88;;;;;;;1.77;52.15;100080.69;5109151;28;20248;-72
2023/03/01 06:29:37;;;;;;;31.85;23.40;;;;;;;1.92;52.09;100095.38;5108306;28;20203;-72
2023/03/01 06:32:05;;;;;;;29.25;21.92;;;;;;;1.89;52.41;100104.97;5108683;28;20059;-72
2023/03/01 06:34:32;;;;;;;30.30;21.88;;;;;;;-6.23;52.18;98708.03;5108073;28;20118;-72
2023/03/01 06:37:02;;;;;;;31.88;23.15;;;;;;;1.87;52.35;100098.91;5107827;28;20039;-72
2023/03/01 06:39:29;;;;;;;31.02;23.38;;;;;;;1.86;52.62;100104.13;5108214;28;20051;-72
2023/03/01 06:41:57;;;;;;;29.15;21.38;;;;;;;0.60;52.57;99889.16;5107354;28;20048;-72
2023/03/01 06:44:24;;;;;;;30.23;21.73;;;;;;;0.77;52.51;99918.63;5107604;28;20032;-72
2023/03/01 06:46:51;;;;;;;31.20;23.33;;;;;;;1.94;52.19;100117.16;5108147;28;20035;-72
2023/03/01 06:49:19;;;;;;;35.92;22.70;;;;;;;0.76;52.32;99909.06;5108619;28;20284;-72
2023/03/01 06:51:48;;;;;;;31.40;22.75;;;;;;;-1.15;52.13;99587.94;5109061;28;20099;-72
2023/03/01 06:54:15;;;;;;;31.48;22.67;;;;;;;1.98;52.25;100122.34;5107517;28;20048;-72
2023/03/01 06:56:41;;;;;;;28.13;21.98;;;;;;;0.86;52.20;99954.22;5108261;28;20055;-73
2023/03/01 06:59:10;;;;;;;31.42;22.13;;;;;;;0.70;52.26;99909.09;5108565;28;20111;-73
2023/03/01 07:01:37;;;;;;;34.83;22.17;;;;;;;1.96;52.24;100113.66;5106814;28;20036;-73
2023/03/01 07:04:04;;;;;;;29.30;21.80;;;;;;;1.57;52.24;100050.31;5108629;28;20052;-73
2023/03/01 07:06:31;;;;;;;35.85;23.88;;;;;;;2.00;52.30;100119.72;5108297;28;20043;-73
2023/03/01 07:08:58;;;;;;;31.50;21.33;;;;;;;1.99;52.44;100121.47;5108762;28;20044;-72
2023/03/01 07:11:24;;;;;;;29.60;21.50;;;;;;;1.03;52.30;99943.66;5108671;28;20355;-72
2023/03/01 07:13:51;;;;;;;32.83;23.23;;;;;;;2.04;52.32;100114.44;5107312;28;20123;-73
2023/03/01 07:16:20;;;;;;;31.75;23.33;;;;;;;2.02;52.30;100108.38;5107144;28;20115;-74
2023/03/01 07:18:47;;;;;;;35.45;24.45;;;;;;;2.05;52.45;100108.34;5107922;28;20052;-74
2023/03/01 07:21:16;;;;;;;32.30;22.42;;;;;;;2.06;52.42;100112.69;5107129;28;20044;-74
2023/03/01 07:23:43;;;;;;;29.83;22.75;;;;;;;0.21;52.22;99810.31;5107859;28;20200;-74
2023/03/01 07:26:10;;;;;;;30.85;22.60;;;;;;;-1.95;52.21;99431.44;5107108;28;20032;-73
2023/03/01 07:28:38;;;;;;;30.77;22.17;;;;;;;0.92;52.24;99913.28;5109069;28;20208;-73
2023/03/01 07:31:06;;;;;;;32.08;22.80;;;;;;;2.07;52.45;100114.41;5107170;28;20063;-74
2023/03/01 07:33:34;;;;;;;35.72;23.10;;;;;;;1.40;52.35;99984.28;5108130;28;20107;-73
2023/03/01 07:36:03;;;;;;;29.13;21.55;;;;;;;1.73;52.39;100034.56;5107591;28;20028;-73
2023/03/01 07:38:30;;;;;;;32.05;22.52;;;;;;;0.65;52.31;99850.00;5106857;28;20050;-73
2023/03/01 07:41:01;;;;;;;30.40;22.27;;;;;;;1.70;51.92;100166.13;5107813;28;20047;-73
2023/03/01 07:43:29;;;;;;;35.30;23.52;;;;;;;2.15;52.40;100099.53;5108038;28;20059;-74
2023/03/01 07:45:59;;;;;;;32.58;21.65;;;;;;;1.19;52.38;99933.09;5090133;28;20075;-73
2023/03/01 07:48:25;;;;;;;36.00;22.13;;;;;;;2.15;52.38;100101.28;5107138;28;20046;-74
2023/03/01 07:50:54;;;;;;;30.15;22.73;;;;;;;2.15;52.52;100096.91;5090168;28;20318;-74
2023/03/01 07:53:21;;;;;;;32.08;22.38;;;;;;;2.17;52.28;100102.13;5107508;28;20185;-74
2023/03/01 07:55:48;;;;;;;31.75;23.15;;;;;;;2.20;52.23;100097.75;5106526;28;20044;-74
2023/03/01 07:58:15;;;;;;;33.72;22.48;;;;;;;2.22;52.14;100103.81;5106407;28;20035;-73
2023/03/01 08:00:42;;;;;;;31.33;23.95;;;;;;;2.22;52.28;100102.94;5089767;28;20036;-73
2023/03/01 08:03:09;;;;;;;34.17;22.05;;;;;;;-3.96;52.02;99162.97;5106392;28;20334;-74
2023/03/01 08:05:36;;;;;;;29.95;22.70;;;;;;;0.57;52.08;99829.19;5089614;28;20032;-73
2023/03/01 08:08:05;;;;;;;32.22;21.77;;;;;;;-1.39;52.08;100036.13;5107799;28;20042;-74
2023/03/01 08:10:32;;;;;;;30.00;23.00;;;;;;;0.73;51.96;99851.69;5107161;28;20101;-74
2023/03/01 08:12:59;;;;;;;34.70;23.80;;;;;;;1.51;52.03;99984.19;5106020;28;20036;-73
2023/03/01 08:15:26;;;;;;;36.05;25.05;;;;;;;2.23;52.08;100121.25;5089193;28;20036;-73
2023/03/01 08:17:53;;;;;;;30.63;22.35;;;;;;;2.28;52.01;100097.66;5107502;28;20062;-73
2023/03/01 08:20:19;;;;;;;35.42;22.95;;;;;;;2.30;52.03;100102.88;5089445;28;20036;-74
2023/03/01 08:22:46;;;;;;;31.23;22.08;;;;;;;2.35;51.86;100101.09;5106459;28;20039;-73
2023/03/01 08:25:15;;;;;;;33.75;22.95;;;;;;;2.40;51.81;100100.16;5106678;28;20047;-73
2023/03/01 08:27:41;;;;;;;30.45;20.55;;;;;;;2.43;51.85;100099.25;5105804;28;20039;-74
2023/03/01 08:30:10;;;;;;;35.47;24.30;;;;;;;2.06;51.80;100049.06;5107195;28;20040;-74
2023/03/01 08:32:38;;;;;;;31.77;23.90;;;;;;;2.21;51.69;100054.16;5106309;28;20183;-74
2023/03/01 08:35:06;;;;;;;32.78;23.15;;;;;;;1.29;51.81;99892.09;5105870;28;20078;-74
2023/03/01 08:37:33;;;;;;;31.80;24.50;;;;;;;1.43;51.95;99928.53;5088390;28;20044;-74
2023/03/01 08:40:00;;;;;;;34.45;24.05;;;;;;;2.49;51.78;100091.34;5106355;28;20046;-74
2023/03/01 08:42:29;;;;;;;35.20;24.23;;;;;;;2.61;51.89;100088.59;5106737;28;20051;-73
2023/03/01 08:44:56;;;;;;;31.90;23.63;;;;;;;2.40;51.74;100026.03;5105552;28;20042;-74
2023/03/01 08:47:23;;;;;;;32.03;22.20;;;;;;;2.87;51.51;100085.66;5088619;28;20044;-73
2023/03/01 08:49:51;;;;;;;32.55;23.25;;;;;;;2.36;51.55;99969.41;5106045;28;20075;-74
2023/03/01 08:52:19;;;;;;;32.53;23.35;;;;;;;2.91;51.14;100000.09;5107100;28;20036;-74
2023/03/01 08:54:46;;;;;;;30.63;22.73;;;;;;;2.88;50.56;99957.34;5065761;28;20158;-74
2023/03/01 08:57:12;;;;;;;31.88;23.23;;;;;;;3.66;50.30;100067.97;5065941;28;20036;-74
2023/03/01 08:59:41;;;;;;;35.38;24.73;;;;;;;3.79;50.38;100069.50;5064981;28;20051;-73
2023/03/01 09:02:14;;;;;;;33.15;24.25;;;;;;;3.41;50.32;100007.19;5065350;28;20045;-74
2023/03/01 09:04:41;;;;;;;36.55;24.70;;;;;;;3.12;50.01;99922.09;5064933;28;20274;-73
2023/03/01 09:07:09;;;;;;;34.05;23.42;;;;;;;1.57;49.93;99637.56;5065196;28;20118;-73
2023/03/01 09:09:36;;;;;;;34.08;25.45;;;;;;;4.12;49.70;100055.81;5065026;28;20052;-73
2023/03/01 09:12:04;;;;;;;32.33;24.02;;;;;;;2.43;49.62;99752.16;5048522;28;20036;-73
2023/03/01 09:14:32;;;;;;;30.30;22.08;;;;;;;3.24;49.48;99873.00;5066135;28;20052;-73
2023/03/01 09:17:02;;;;;;;28.70;22.42;;;;;;;4.33;49.37;100048.47;5065222;28;20048;-73
2023/03/01 09:19:29;;;;;;;28.48;21.40;;;;;;;1.87;49.24;99735.59;5065624;28;20075;-73
2023/03/01 09:21:58;;;;;;;30.90;23.75;;;;;;;3.75;49.25;99918.38;5064942;28;20124;-73
2023/03/01 09:24:26;;;;;;;30.45;23.45;;;;;;;4.54;49.46;100060.31;5064786;28;20082;-73
2023/03/01 09:26:55;;;;;;;31.92;22.73;;;;;;;4.57;48.92;100039.25;5064792;28;20071;-73
2023/03/01 09:29:22;;;;;;;35.15;25.92;;;;;;;3.52;49.03;99851.50;5066027;28;20068;-73
2023/03/01 09:31:49;;;;;;;30.90;22.95;;;;;;;4.72;48.90;100029.31;5048412;28;20068;-73
2023/03/01 09:34:22;;;;;;;30.08;22.50;;;;;;;2.75;48.60;99662.66;5065222;28;20045;-73
2023/03/01 09:36:50;;;;;;;32.03;23.50;;;;;;;4.95;48.56;100014.84;5065459;28;20064;-73
2023/03/01 09:39:17;;;;;;;32.33;23.70;;;;;;;5.12;48.38;100021.47;5065470;28;20252;-73
2023/03/01 09:41:48;;;;;;;26.35;21.92;;;;;;;5.25;48.08;100014.16;5065821;28;20228;-73
2023/03/01 09:44:23;;;;;;;25.85;21.58;;;;;;;5.25;47.95;100013.31;5064751;28;20076;-73
2023/03/01 09:46:51;;;;;;;30.15;22.60;;;;;;;5.23;47.88;100037.00;5064823;28;20056;-73
2023/03/01 09:49:22;;;;;;;31.88;23.98;;;;;;;4.82;47.78;99954.69;5070066;28;20346;-73
2023/03/01 09:51:56;;;;;;;30.90;22.80;;;;;;;5.12;47.56;100005.69;5072023;28;20043;-73
2023/03/01 09:54:23;;;;;;;33.17;23.70;;;;;;;5.07;48.16;100012.81;5105137;28;20039;-73
2023/03/01 09:57:13;;;;;;;30.10;22.75;;;;;;;5.02;47.67;100014.69;5091606;28;20371;-73
2023/03/01 09:59:57;;;;;;;28.38;20.33;;;;;;;3.94;47.56;99829.72;5109710;28;20106;-73
2023/03/01 10:02:31;;;;;;;24.85;20.27;;;;;;;5.01;47.54;100001.59;5088544;28;20109;-73
2023/03/01 10:05:15;;;;;;;28.05;20.52;;;;;;;4.54;47.52;99926.44;5104930;28;20040;-73
2023/03/01 10:07:49;;;;;;;25.85;19.42;;;;;;;3.23;47.78;99701.88;5087649;28;20051;-73
2023/03/01 10:10:32;;;;;;;26.30;19.42;;;;;;;4.92;47.62;99997.41;5104674;28;20043;-73
2023/03/01 10:13:18;;;;;;;23.58;18.52;;;;;;;4.97;47.86;99999.94;5104638;28;20058;-73
2023/03/01 10:15:54;;;;;;;22.85;18.23;;;;;;;4.94;47.84;99994.75;5105242;28;20040;-72
2023/03/01 10:18:24;;;;;;;23.83;18.45;;;;;;;4.92;48.08;99992.16;5104885;28;20055;-73
2023/03/01 10:20:54;;;;;;;23.10;18.98;;;;;;;4.90;47.92;99985.19;5071243;28;20085;-73
2023/03/01 10:23:24;;;;;;;26.13;19.27;;;;;;;4.97;47.98;99992.03;5104400;28;20119;-73
2023/03/01 10:26:04;;;;;;;25.20;18.33;;;;;;;3.21;47.55;99677.47;5104584;28;20036;-73
2023/03/01 10:28:37;;;;;;;25.63;19.60;;;;;;;5.01;47.75;99983.19;5104500;28;20048;-73
2023/03/01 10:31:05;;;;;;;24.90;19.10;;;;;;;4.37;47.86;99876.94;5104186;28;20036;-73
2023/03/01 10:33:36;;;;;;;22.50;17.27;;;;;;;5.02;47.80;99991.03;5104394;28;20127;-73
2023/03/01 10:36:06;;;;;;;23.63;17.70;;;;;;;5.09;47.81;99963.72;5106672;28;20103;-72
2023/03/01 10:38:48;;;;;;;23.25;17.60;;;;;;;4.07;47.01;99757.75;5107425;28;20050;-73
2023/03/01 10:41:15;;;;;;;20.63;16.80;;;;;;;5.36;47.33;99945.56;5107535;28;20119;-73
2023/03/01 10:43:46;;;;;;;23.30;18.30;;;;;;;1.25;46.84;99335.13;5108359;28;20115;-72
2023/03/01 10:46:25;;;;;;;22.30;17.90;;;;;;;5.43;46.06;99932.25;5107592;28;20081;-73
2023/03/01 10:49:07;;;;;;;23.00;18.13;;;;;;;4.58;46.34;99771.44;5109166;28;20051;-73
2023/03/01 10:51:36;;;;;;;21.42;16.88;;;;;;;5.09;46.57;99827.09;5108951;28;20050;-73
2023/03/01 10:54:06;;;;;;;21.77;16.67;;;;;;;5.78;46.56;99930.47;5090397;28;20052;-73
2023/03/01 10:56:48;;;;;;;18.90;15.38;;;;;;;5.90;45.88;99922.25;5108162;28;20052;-73
2023/03/01 10:59:26;;;;;;;21.50;16.75;;;;;;;6.07;45.55;99924.41;5107992;28;20032;-74
2023/03/01 11:02:06;;;;;;;24.45;18.88;;;;;;;4.59;45.17;99773.19;5108569;28;20066;-74
2023/03/01 11:04:36;;;;;;;19.75;15.98;;;;;;;6.13;46.35;99910.22;5108604;28;20042;-74
2023/03/01 11:07:06;;;;;;;22.38;17.42;;;;;;;6.27;45.70;99900.16;5108802;28;20043;-74
2023/03/01 11:09:37;;;;;;;21.17;16.58;;;;;;;5.85;45.82;99844.34;5108445;28;20294;-74
2023/03/01 11:12:14;;;;;;;20.75;15.43;;;;;;;6.56;45.73;99897.53;5107966;28;20040;-73
2023/03/01 11:14:49;;;;;;;17.92;14.38;;;;;;;6.79;44.95;99886.28;5107503;28;20110;-74
2023/03/01 11:17:22;;;;;;;17.52;15.30;;;;;;;6.85;44.90;99875.59;5106639;28;20051;-73
2023/03/01 11:20:02;;;;;;;18.98;15.38;;;;;;;6.95;43.82;99884.06;5108087;28;20040;-73
2023/03/01 11:22:32;;;;;;;20.00;14.55;;;;;;;6.13;44.44;99732.13;5107967;28;20317;-73
2023/03/01 11:25:00;;;;;;;19.73;15.40;;;;;;;6.36;45.01;99776.16;5107769;28;20287;-73
2023/03/01 11:27:30;;;;;;;18.60;14.68;;;;;;;6.96;45.00;99884.00;5108151;28;20032;-73
2023/03/01 11:30:03;;;;;;;23.17;16.58;;;;;;;6.98;44.79;99883.97;5108047;28;20057;-73
2023/03/01 11:32:37;;;;;;;20.35;15.70;;;;;;;4.14;44.30;99411.31;5090062;28;20036;-74